sensor_id;sensor_type;location;lat;lon;timestamp;temperature;humidity
11855;DHT22;5987;53.140;8.904;2024-01-16T00:01:33;1.10;99.90
11855;DHT22;5987;53.140;8.904;2024-01-16T00:04:37;1.20;99.90
11855;DHT22;5987;53.140;8.904;2024-01-16T00:07:43;1.30;99.90
11855;DHT22;5987;53.140;8.904;2024-01-16T00:10:48;1.20;99.90
11855;DHT22;5987;53.140;8.904;2024-01-16T00:13:52;1.30;99.90
11855;DHT22;5987;53.140;8.904;2024-01-16T00:16:56;1.30;99.90
11855;DHT22;5987;53.140;8.904;2024-01-16T00:19:59;1.40;99.90
11855;DHT22;5987;53.140;8.904;2024-01-16T00:23:03;1.40;99.90
11855;DHT22;5987;53.140;8.904;2024-01-16T00:26:19;1.30;99.90
11855;DHT22;5987;53.140;8.904;2024-01-16T00:29:24;1.30;99.90
11855;DHT22;5987;53.140;8.904;2024-01-16T00:32:28;1.30;99.90
11855;DHT22;5987;53.140;8.904;2024-01-16T00:35:32;1.20;99.90
11855;DHT22;5987;53.140;8.904;2024-01-16T00:38:35;1.30;99.90
11855;DHT22;5987;53.140;8.904;2024-01-16T00:41:41;1.40;99.90
11855;DHT22;5987;53.140;8.904;2024-01-16T00:44:45;1.40;99.90
11855;DHT22;5987;53.140;8.904;2024-01-16T00:47:49;1.40;99.90
11855;DHT22;5987;53.140;8.904;2024-01-16T00:50:54;1.40;99.90
11855;DHT22;5987;53.140;8.904;2024-01-16T00:53:58;1.40;99.90
11855;DHT22;5987;53.140;8.904;2024-01-16T00:57:03;1.40;99.90
11855;DHT22;5987;53.140;8.904;2024-01-16T01:00:08;1.30;99.90
11855;DHT22;5987;53.140;8.904;2024-01-16T01:03:13;1.40;99.90
11855;DHT22;5987;53.140;8.904;2024-01-16T01:06:18;1.30;99.90
11855;DHT22;5987;53.140;8.904;2024-01-16T01:09:22;1.20;99.90
11855;DHT22;5987;53.140;8.904;2024-01-16T01:12:27;1.10;99.90
11855;DHT22;5987;53.140;8.904;2024-01-16T01:15:31;1.10;99.90
11855;DHT22;5987;53.140;8.904;2024-01-16T01:18:35;1.00;99.90
11855;DHT22;5987;53.140;8.904;2024-01-16T01:21:39;1.00;99.90
11855;DHT22;5987;53.140;8.904;2024-01-16T01:24:43;0.90;99.90
11855;DHT22;5987;53.140;8.904;2024-01-16T01:27:48;0.90;99.90
11855;DHT22;5987;53.140;8.904;2024-01-16T01:30:52;0.90;99.90
11855;DHT22;5987;53.140;8.904;2024-01-16T01:33:56;0.80;99.90
11855;DHT22;5987;53.140;8.904;2024-01-16T01:37:00;0.80;99.90
11855;DHT22;5987;53.140;8.904;2024-01-16T01:40:04;0.80;99.90
11855;DHT22;5987;53.140;8.904;2024-01-16T01:43:20;0.70;99.90
11855;DHT22;5987;53.140;8.904;2024-01-16T01:46:25;0.70;99.90
11855;DHT22;5987;53.140;8.904;2024-01-16T01:49:31;0.70;99.90
11855;DHT22;5987;53.140;8.904;2024-01-16T01:52:36;0.80;99.90
11855;DHT22;5987;53.140;8.904;2024-01-16T01:55:41;0.80;99.90
11855;DHT22;5987;53.140;8.904;2024-01-16T01:58:49;0.80;99.90
11855;DHT22;5987;53.140;8.904;2024-01-16T02:01:56;0.90;99.90
11855;DHT22;5987;53.140;8.904;2024-01-16T02:05:01;0.90;99.90
11855;DHT22;5987;53.140;8.904;2024-01-16T02:08:06;1.00;99.90
11855;DHT22;5987;53.140;8.904;2024-01-16T02:11:11;0.90;99.90
11855;DHT22;5987;53.140;8.904;2024-01-16T02:14:16;0.90;99.90
11855;DHT22;5987;53.140;8.904;2024-01-16T02:17:20;0.80;99.90
11855;DHT22;5987;53.140;8.904;2024-01-16T02:20:25;0.80;99.90
11855;DHT22;5987;53.140;8.904;2024-01-16T02:23:30;0.70;99.90
11855;DHT22;5987;53.140;8.904;2024-01-16T02:26:35;0.60;99.90
11855;DHT22;5987;53.140;8.904;2024-01-16T02:29:41;0.50;99.90
11855;DHT22;5987;53.140;8.904;2024-01-16T02:32:45;0.40;99.90
11855;DHT22;5987;53.140;8.904;2024-01-16T02:35:49;0.50;99.90
11855;DHT22;5987;53.140;8.904;2024-01-16T02:38:55;0.50;99.90
11855;DHT22;5987;53.140;8.904;2024-01-16T02:41:59;0.60;99.90
11855;DHT22;5987;53.140;8.904;2024-01-16T02:45:04;0.70;99.90
11855;DHT22;5987;53.140;8.904;2024-01-16T02:48:09;0.70;99.90
11855;DHT22;5987;53.140;8.904;2024-01-16T02:51:13;0.70;99.90
11855;DHT22;5987;53.140;8.904;2024-01-16T02:54:20;0.50;99.90
11855;DHT22;5987;53.140;8.904;2024-01-16T02:57:23;0.40;99.90
11855;DHT22;5987;53.140;8.904;2024-01-16T03:00:27;0.30;99.90
11855;DHT22;5987;53.140;8.904;2024-01-16T03:03:31;0.20;99.90
11855;DHT22;5987;53.140;8.904;2024-01-16T03:06:35;0.20;99.90
11855;DHT22;5987;53.140;8.904;2024-01-16T03:09:40;0.20;99.90
11855;DHT22;5987;53.140;8.904;2024-01-16T03:12:44;0.30;99.90
11855;DHT22;5987;53.140;8.904;2024-01-16T03:15:48;0.40;99.90
11855;DHT22;5987;53.140;8.904;2024-01-16T03:18:52;0.50;99.90
11855;DHT22;5987;53.140;8.904;2024-01-16T03:21:56;0.60;99.90
11855;DHT22;5987;53.140;8.904;2024-01-16T03:25:02;0.70;99.90
11855;DHT22;5987;53.140;8.904;2024-01-16T03:28:06;0.80;99.90
11855;DHT22;5987;53.140;8.904;2024-01-16T03:31:13;0.80;99.90
11855;DHT22;5987;53.140;8.904;2024-01-16T03:34:17;0.80;99.90
11855;DHT22;5987;53.140;8.904;2024-01-16T03:37:21;0.80;99.90
11855;DHT22;5987;53.140;8.904;2024-01-16T03:40:26;0.80;99.90
11855;DHT22;5987;53.140;8.904;2024-01-16T03:43:31;0.80;99.90
11855;DHT22;5987;53.140;8.904;2024-01-16T03:46:34;0.80;99.90
11855;DHT22;5987;53.140;8.904;2024-01-16T03:49:38;0.70;99.90
11855;DHT22;5987;53.140;8.904;2024-01-16T03:52:42;0.70;99.90
11855;DHT22;5987;53.140;8.904;2024-01-16T03:55:47;0.70;99.90
11855;DHT22;5987;53.140;8.904;2024-01-16T03:58:52;0.60;99.90
11855;DHT22;5987;53.140;8.904;2024-01-16T04:01:56;0.40;99.90
11855;DHT22;5987;53.140;8.904;2024-01-16T04:05:00;0.40;99.90
11855;DHT22;5987;53.140;8.904;2024-01-16T04:08:05;0.30;99.90
11855;DHT22;5987;53.140;8.904;2024-01-16T04:11:13;0.30;99.90
11855;DHT22;5987;53.140;8.904;2024-01-16T04:14:17;0.20;99.90
11855;DHT22;5987;53.140;8.904;2024-01-16T04:17:20;0.20;99.90
11855;DHT22;5987;53.140;8.904;2024-01-16T04:20:24;0.20;99.90
11855;DHT22;5987;53.140;8.904;2024-01-16T04:23:29;0.10;99.90
11855;DHT22;5987;53.140;8.904;2024-01-16T04:26:35;0.10;99.90
11855;DHT22;5987;53.140;8.904;2024-01-16T04:29:40;0.00;99.90
11855;DHT22;5987;53.140;8.904;2024-01-16T04:32:45;0.00;99.90
11855;DHT22;5987;53.140;8.904;2024-01-16T04:35:50;0.00;99.90
11855;DHT22;5987;53.140;8.904;2024-01-16T04:38:53;0.00;99.90
11855;DHT22;5987;53.140;8.904;2024-01-16T04:42:03;-0.10;99.90
11855;DHT22;5987;53.140;8.904;2024-01-16T04:45:08;0.00;99.90
11855;DHT22;5987;53.140;8.904;2024-01-16T04:48:12;0.00;99.90
11855;DHT22;5987;53.140;8.904;2024-01-16T04:51:16;0.10;99.90
11855;DHT22;5987;53.140;8.904;2024-01-16T04:54:20;0.00;99.90
11855;DHT22;5987;53.140;8.904;2024-01-16T04:57:25;0.00;99.90
11855;DHT22;5987;53.140;8.904;2024-01-16T05:00:29;0.00;99.90
11855;DHT22;5987;53.140;8.904;2024-01-16T05:03:33;0.00;99.90
11855;DHT22;5987;53.140;8.904;2024-01-16T05:06:37;0.10;99.90
11855;DHT22;5987;53.140;8.904;2024-01-16T05:09:41;0.20;99.90
11855;DHT22;5987;53.140;8.904;2024-01-16T05:12:48;0.20;99.90
11855;DHT22;5987;53.140;8.904;2024-01-16T05:15:52;0.10;99.90
11855;DHT22;5987;53.140;8.904;2024-01-16T05:18:56;0.10;99.90
11855;DHT22;5987;53.140;8.904;2024-01-16T05:22:01;0.10;99.90
11855;DHT22;5987;53.140;8.904;2024-01-16T05:25:05;0.00;99.90
11855;DHT22;5987;53.140;8.904;2024-01-16T05:28:11;0.00;99.90
11855;DHT22;5987;53.140;8.904;2024-01-16T05:31:15;0.00;99.90
11855;DHT22;5987;53.140;8.904;2024-01-16T05:34:19;0.00;99.90
11855;DHT22;5987;53.140;8.904;2024-01-16T05:37:23;0.00;99.90
11855;DHT22;5987;53.140;8.904;2024-01-16T05:40:27;0.00;99.90
11855;DHT22;5987;53.140;8.904;2024-01-16T05:43:32;0.00;99.90
11855;DHT22;5987;53.140;8.904;2024-01-16T05:46:36;0.00;99.90
11855;DHT22;5987;53.140;8.904;2024-01-16T05:49:40;0.00;99.90
11855;DHT22;5987;53.140;8.904;2024-01-16T05:52:45;0.00;99.90
11855;DHT22;5987;53.140;8.904;2024-01-16T05:55:49;0.00;99.90
11855;DHT22;5987;53.140;8.904;2024-01-16T05:58:54;0.10;99.90
11855;DHT22;5987;53.140;8.904;2024-01-16T06:01:58;0.10;99.90
11855;DHT22;5987;53.140;8.904;2024-01-16T06:05:01;0.20;99.90
11855;DHT22;5987;53.140;8.904;2024-01-16T06:08:06;0.30;99.90
11855;DHT22;5987;53.140;8.904;2024-01-16T06:11:10;0.20;99.90
11855;DHT22;5987;53.140;8.904;2024-01-16T06:14:17;0.30;99.90
11855;DHT22;5987;53.140;8.904;2024-01-16T06:17:24;0.30;99.90
11855;DHT22;5987;53.140;8.904;2024-01-16T06:20:28;0.30;99.90
11855;DHT22;5987;53.140;8.904;2024-01-16T06:23:33;0.30;99.90
11855;DHT22;5987;53.140;8.904;2024-01-16T06:26:36;0.30;99.90
11855;DHT22;5987;53.140;8.904;2024-01-16T06:29:42;0.40;99.90
11855;DHT22;5987;53.140;8.904;2024-01-16T06:32:46;0.50;99.90
11855;DHT22;5987;53.140;8.904;2024-01-16T06:35:51;0.40;99.90
11855;DHT22;5987;53.140;8.904;2024-01-16T06:38:55;0.40;99.90
11855;DHT22;5987;53.140;8.904;2024-01-16T06:41:59;0.40;99.90
11855;DHT22;5987;53.140;8.904;2024-01-16T06:45:05;0.40;99.90
11855;DHT22;5987;53.140;8.904;2024-01-16T06:48:10;0.40;99.90
11855;DHT22;5987;53.140;8.904;2024-01-16T06:51:14;0.50;99.90
11855;DHT22;5987;53.140;8.904;2024-01-16T06:54:18;0.40;99.90
11855;DHT22;5987;53.140;8.904;2024-01-16T06:57:23;0.30;99.90
11855;DHT22;5987;53.140;8.904;2024-01-16T07:00:28;0.20;99.90
11855;DHT22;5987;53.140;8.904;2024-01-16T07:03:32;0.10;99.90
11855;DHT22;5987;53.140;8.904;2024-01-16T07:06:36;0.20;99.90
11855;DHT22;5987;53.140;8.904;2024-01-16T07:09:40;0.20;99.90
11855;DHT22;5987;53.140;8.904;2024-01-16T07:12:44;0.20;99.90
11855;DHT22;5987;53.140;8.904;2024-01-16T07:15:49;0.20;99.90
11855;DHT22;5987;53.140;8.904;2024-01-16T07:18:53;0.10;99.90
11855;DHT22;5987;53.140;8.904;2024-01-16T07:21:57;0.20;99.90
11855;DHT22;5987;53.140;8.904;2024-01-16T07:25:01;0.20;99.90
11855;DHT22;5987;53.140;8.904;2024-01-16T07:28:05;0.20;99.90
11855;DHT22;5987;53.140;8.904;2024-01-16T07:31:11;0.20;99.90
11855;DHT22;5987;53.140;8.904;2024-01-16T07:34:15;0.20;99.90
11855;DHT22;5987;53.140;8.904;2024-01-16T07:37:23;0.20;99.90
11855;DHT22;5987;53.140;8.904;2024-01-16T07:40:27;0.20;99.90
11855;DHT22;5987;53.140;8.904;2024-01-16T07:43:31;0.30;99.90
11855;DHT22;5987;53.140;8.904;2024-01-16T07:46:36;0.30;99.90
11855;DHT22;5987;53.140;8.904;2024-01-16T07:49:40;0.40;99.90
11855;DHT22;5987;53.140;8.904;2024-01-16T07:52:44;0.40;99.90
11855;DHT22;5987;53.140;8.904;2024-01-16T07:55:48;0.40;99.90
11855;DHT22;5987;53.140;8.904;2024-01-16T07:58:51;0.40;99.90
11855;DHT22;5987;53.140;8.904;2024-01-16T08:01:57;0.40;99.90
11855;DHT22;5987;53.140;8.904;2024-01-16T08:05:00;0.40;99.90
11855;DHT22;5987;53.140;8.904;2024-01-16T08:08:04;0.50;99.90
11855;DHT22;5987;53.140;8.904;2024-01-16T08:11:08;0.60;99.90
11855;DHT22;5987;53.140;8.904;2024-01-16T08:14:14;0.60;99.90
11855;DHT22;5987;53.140;8.904;2024-01-16T08:17:19;0.70;99.90
11855;DHT22;5987;53.140;8.904;2024-01-16T08:20:23;0.70;99.90
11855;DHT22;5987;53.140;8.904;2024-01-16T08:23:27;0.80;99.90
11855;DHT22;5987;53.140;8.904;2024-01-16T08:26:31;0.80;99.90
11855;DHT22;5987;53.140;8.904;2024-01-16T08:29:34;0.80;99.90
11855;DHT22;5987;53.140;8.904;2024-01-16T08:32:40;0.90;99.90
11855;DHT22;5987;53.140;8.904;2024-01-16T08:35:44;0.90;99.90
11855;DHT22;5987;53.140;8.904;2024-01-16T08:38:48;1.00;99.90
11855;DHT22;5987;53.140;8.904;2024-01-16T08:41:52;1.00;99.90
11855;DHT22;5987;53.140;8.904;2024-01-16T08:44:56;1.10;99.90
11855;DHT22;5987;53.140;8.904;2024-01-16T08:48:01;1.10;99.90
11855;DHT22;5987;53.140;8.904;2024-01-16T08:51:08;1.10;99.90
11855;DHT22;5987;53.140;8.904;2024-01-16T08:54:16;1.20;99.90
11855;DHT22;5987;53.140;8.904;2024-01-16T08:57:19;1.30;99.90
11855;DHT22;5987;53.140;8.904;2024-01-16T09:00:26;1.40;99.90
11855;DHT22;5987;53.140;8.904;2024-01-16T09:03:32;1.40;99.90
11855;DHT22;5987;53.140;8.904;2024-01-16T09:06:36;1.50;99.90
11855;DHT22;5987;53.140;8.904;2024-01-16T09:09:41;1.50;99.90
11855;DHT22;5987;53.140;8.904;2024-01-16T09:12:45;1.50;99.90
11855;DHT22;5987;53.140;8.904;2024-01-16T09:15:49;1.40;99.90
11855;DHT22;5987;53.140;8.904;2024-01-16T09:18:54;1.50;99.90
11855;DHT22;5987;53.140;8.904;2024-01-16T09:21:58;1.60;99.90
11855;DHT22;5987;53.140;8.904;2024-01-16T09:25:02;1.60;99.90
11855;DHT22;5987;53.140;8.904;2024-01-16T09:28:07;1.60;99.90
11855;DHT22;5987;53.140;8.904;2024-01-16T09:31:11;1.60;99.90
11855;DHT22;5987;53.140;8.904;2024-01-16T09:34:17;1.60;99.90
11855;DHT22;5987;53.140;8.904;2024-01-16T09:37:21;1.70;99.90
11855;DHT22;5987;53.140;8.904;2024-01-16T09:40:25;1.80;99.90
11855;DHT22;5987;53.140;8.904;2024-01-16T09:43:29;1.80;99.90
11855;DHT22;5987;53.140;8.904;2024-01-16T09:46:37;1.70;99.90
11855;DHT22;5987;53.140;8.904;2024-01-16T09:49:45;1.90;99.90
11855;DHT22;5987;53.140;8.904;2024-01-16T09:52:51;1.90;99.90
11855;DHT22;5987;53.140;8.904;2024-01-16T09:56:02;1.90;99.90
11855;DHT22;5987;53.140;8.904;2024-01-16T09:59:10;2.00;99.90
11855;DHT22;5987;53.140;8.904;2024-01-16T10:02:19;1.90;99.90
11855;DHT22;5987;53.140;8.904;2024-01-16T10:05:26;2.00;99.90
11855;DHT22;5987;53.140;8.904;2024-01-16T10:08:30;2.10;99.90
11855;DHT22;5987;53.140;8.904;2024-01-16T10:11:34;2.00;99.90
11855;DHT22;5987;53.140;8.904;2024-01-16T10:14:40;2.10;99.90
11855;DHT22;5987;53.140;8.904;2024-01-16T10:17:48;2.10;99.90
11855;DHT22;5987;53.140;8.904;2024-01-16T10:20:54;2.20;99.90
11855;DHT22;5987;53.140;8.904;2024-01-16T10:24:11;2.40;99.90
11855;DHT22;5987;53.140;8.904;2024-01-16T10:27:16;2.50;99.90
11855;DHT22;5987;53.140;8.904;2024-01-16T10:30:22;2.50;99.90
11855;DHT22;5987;53.140;8.904;2024-01-16T10:33:27;2.50;99.90
11855;DHT22;5987;53.140;8.904;2024-01-16T10:36:32;2.40;99.90
11855;DHT22;5987;53.140;8.904;2024-01-16T10:39:36;2.50;99.90
11855;DHT22;5987;53.140;8.904;2024-01-16T10:42:45;2.50;99.90
11855;DHT22;5987;53.140;8.904;2024-01-16T10:46:07;2.60;99.90
11855;DHT22;5987;53.140;8.904;2024-01-16T10:49:14;2.50;99.90
11855;DHT22;5987;53.140;8.904;2024-01-16T10:52:19;2.70;99.90
11855;DHT22;5987;53.140;8.904;2024-01-16T10:55:31;2.60;99.90
11855;DHT22;5987;53.140;8.904;2024-01-16T10:58:57;2.60;99.90
11855;DHT22;5987;53.140;8.904;2024-01-16T11:02:10;2.60;99.90
11855;DHT22;5987;53.140;8.904;2024-01-16T11:05:19;2.70;99.90
11855;DHT22;5987;53.140;8.904;2024-01-16T11:08:30;2.70;99.90
11855;DHT22;5987;53.140;8.904;2024-01-16T11:11:36;2.70;99.90
11855;DHT22;5987;53.140;8.904;2024-01-16T11:14:42;2.70;99.90
11855;DHT22;5987;53.140;8.904;2024-01-16T11:17:49;2.70;99.90
11855;DHT22;5987;53.140;8.904;2024-01-16T11:20:53;2.70;99.90
11855;DHT22;5987;53.140;8.904;2024-01-16T11:24:12;2.90;99.90
11855;DHT22;5987;53.140;8.904;2024-01-16T11:27:23;2.90;99.90
11855;DHT22;5987;53.140;8.904;2024-01-16T11:30:30;2.80;99.90
11855;DHT22;5987;53.140;8.904;2024-01-16T11:33:43;2.90;99.90
11855;DHT22;5987;53.140;8.904;2024-01-16T11:36:52;3.10;99.90
11855;DHT22;5987;53.140;8.904;2024-01-16T11:40:29;3.10;99.90
11855;DHT22;5987;53.140;8.904;2024-01-16T11:43:36;3.10;99.90
11855;DHT22;5987;53.140;8.904;2024-01-16T11:47:01;3.00;99.90
11855;DHT22;5987;53.140;8.904;2024-01-16T11:50:10;2.80;99.90
11855;DHT22;5987;53.140;8.904;2024-01-16T11:53:34;2.70;99.90
11855;DHT22;5987;53.140;8.904;2024-01-16T11:57:08;2.60;99.90
11855;DHT22;5987;53.140;8.904;2024-01-16T12:00:31;2.40;99.90
11855;DHT22;5987;53.140;8.904;2024-01-16T12:03:36;2.30;99.90
11855;DHT22;5987;53.140;8.904;2024-01-16T12:06:39;2.30;99.90
11855;DHT22;5987;53.140;8.904;2024-01-16T12:09:43;2.30;99.90
11855;DHT22;5987;53.140;8.904;2024-01-16T12:12:49;2.40;99.90
11855;DHT22;5987;53.140;8.904;2024-01-16T12:15:59;2.20;99.90
11855;DHT22;5987;53.140;8.904;2024-01-16T12:19:05;2.20;99.90
11855;DHT22;5987;53.140;8.904;2024-01-16T12:22:12;2.20;99.90
11855;DHT22;5987;53.140;8.904;2024-01-16T12:25:19;2.40;99.90
11855;DHT22;5987;53.140;8.904;2024-01-16T12:28:25;2.40;99.90
11855;DHT22;5987;53.140;8.904;2024-01-16T12:31:34;2.30;99.90
11855;DHT22;5987;53.140;8.904;2024-01-16T12:34:47;2.40;99.90
11855;DHT22;5987;53.140;8.904;2024-01-16T12:37:59;2.40;99.90
11855;DHT22;5987;53.140;8.904;2024-01-16T12:41:06;2.60;99.90
11855;DHT22;5987;53.140;8.904;2024-01-16T12:44:14;2.50;99.90
11855;DHT22;5987;53.140;8.904;2024-01-16T12:47:19;2.40;99.90
11855;DHT22;5987;53.140;8.904;2024-01-16T12:50:25;2.40;99.90
11855;DHT22;5987;53.140;8.904;2024-01-16T12:53:31;2.40;99.90
11855;DHT22;5987;53.140;8.904;2024-01-16T12:56:39;2.40;99.90
11855;DHT22;5987;53.140;8.904;2024-01-16T12:59:46;2.40;99.90
11855;DHT22;5987;53.140;8.904;2024-01-16T13:02:51;2.40;99.90
11855;DHT22;5987;53.140;8.904;2024-01-16T13:06:00;2.60;99.90
11855;DHT22;5987;53.140;8.904;2024-01-16T13:09:07;2.60;99.90
11855;DHT22;5987;53.140;8.904;2024-01-16T13:12:20;2.60;99.90
11855;DHT22;5987;53.140;8.904;2024-01-16T13:15:25;2.60;99.90
11855;DHT22;5987;53.140;8.904;2024-01-16T13:18:29;2.60;99.90
11855;DHT22;5987;53.140;8.904;2024-01-16T13:21:33;2.60;99.90
11855;DHT22;5987;53.140;8.904;2024-01-16T13:24:38;2.60;99.90
11855;DHT22;5987;53.140;8.904;2024-01-16T13:27:45;2.60;99.90
11855;DHT22;5987;53.140;8.904;2024-01-16T13:30:51;2.60;99.90
11855;DHT22;5987;53.140;8.904;2024-01-16T13:33:55;2.60;99.90
11855;DHT22;5987;53.140;8.904;2024-01-16T13:37:01;2.70;99.90
11855;DHT22;5987;53.140;8.904;2024-01-16T13:40:17;2.60;99.90
11855;DHT22;5987;53.140;8.904;2024-01-16T13:43:26;2.40;99.90
11855;DHT22;5987;53.140;8.904;2024-01-16T13:46:31;2.40;99.90
11855;DHT22;5987;53.140;8.904;2024-01-16T13:49:55;2.50;99.90
11855;DHT22;5987;53.140;8.904;2024-01-16T13:52:59;2.50;99.90
11855;DHT22;5987;53.140;8.904;2024-01-16T13:56:04;2.50;99.90
11855;DHT22;5987;53.140;8.904;2024-01-16T13:59:10;2.50;99.90
11855;DHT22;5987;53.140;8.904;2024-01-16T14:02:15;2.50;99.90
11855;DHT22;5987;53.140;8.904;2024-01-16T14:05:20;2.50;99.90
11855;DHT22;5987;53.140;8.904;2024-01-16T14:08:24;2.40;99.90
11855;DHT22;5987;53.140;8.904;2024-01-16T14:11:28;2.40;99.90
11855;DHT22;5987;53.140;8.904;2024-01-16T14:14:33;2.50;99.90
11855;DHT22;5987;53.140;8.904;2024-01-16T14:17:39;2.50;99.90
11855;DHT22;5987;53.140;8.904;2024-01-16T14:20:43;2.50;99.90
11855;DHT22;5987;53.140;8.904;2024-01-16T14:23:48;2.50;99.90
11855;DHT22;5987;53.140;8.904;2024-01-16T14:26:53;2.40;99.90
11855;DHT22;5987;53.140;8.904;2024-01-16T14:29:59;2.40;99.90
11855;DHT22;5987;53.140;8.904;2024-01-16T14:33:04;2.30;99.90
11855;DHT22;5987;53.140;8.904;2024-01-16T14:36:10;2.30;99.90
11855;DHT22;5987;53.140;8.904;2024-01-16T14:39:15;2.30;99.90
11855;DHT22;5987;53.140;8.904;2024-01-16T14:42:24;2.20;99.90
11855;DHT22;5987;53.140;8.904;2024-01-16T14:45:28;2.30;99.90
11855;DHT22;5987;53.140;8.904;2024-01-16T14:48:34;2.20;99.90
11855;DHT22;5987;53.140;8.904;2024-01-16T14:51:38;2.20;99.90
11855;DHT22;5987;53.140;8.904;2024-01-16T14:54:42;2.20;99.90
11855;DHT22;5987;53.140;8.904;2024-01-16T14:57:46;2.10;99.90
11855;DHT22;5987;53.140;8.904;2024-01-16T15:00:55;2.10;99.90
11855;DHT22;5987;53.140;8.904;2024-01-16T15:04:00;2.10;99.90
11855;DHT22;5987;53.140;8.904;2024-01-16T15:07:04;2.10;99.90
11855;DHT22;5987;53.140;8.904;2024-01-16T15:10:08;2.00;99.90
11855;DHT22;5987;53.140;8.904;2024-01-16T15:13:13;1.90;99.90
11855;DHT22;5987;53.140;8.904;2024-01-16T15:16:17;1.80;99.90
11855;DHT22;5987;53.140;8.904;2024-01-16T15:19:22;1.80;99.90
11855;DHT22;5987;53.140;8.904;2024-01-16T15:22:26;1.80;99.90
11855;DHT22;5987;53.140;8.904;2024-01-16T15:25:30;1.70;99.90
11855;DHT22;5987;53.140;8.904;2024-01-16T15:28:35;1.60;99.90
11855;DHT22;5987;53.140;8.904;2024-01-16T15:31:42;1.50;99.90
11855;DHT22;5987;53.140;8.904;2024-01-16T15:34:47;1.50;99.90
11855;DHT22;5987;53.140;8.904;2024-01-16T15:37:51;1.50;99.90
11855;DHT22;5987;53.140;8.904;2024-01-16T15:40:56;1.50;99.90
11855;DHT22;5987;53.140;8.904;2024-01-16T15:44:01;1.60;99.90
11855;DHT22;5987;53.140;8.904;2024-01-16T15:47:12;1.60;99.90
11855;DHT22;5987;53.140;8.904;2024-01-16T15:50:18;1.60;99.90
11855;DHT22;5987;53.140;8.904;2024-01-16T15:53:22;1.50;99.90
11855;DHT22;5987;53.140;8.904;2024-01-16T15:56:26;1.50;99.90
11855;DHT22;5987;53.140;8.904;2024-01-16T15:59:29;1.50;99.90
11855;DHT22;5987;53.140;8.904;2024-01-16T16:02:33;1.50;99.90
11855;DHT22;5987;53.140;8.904;2024-01-16T16:05:39;1.50;99.90
11855;DHT22;5987;53.140;8.904;2024-01-16T16:08:43;1.60;99.90
11855;DHT22;5987;53.140;8.904;2024-01-16T16:11:47;1.60;99.90
11855;DHT22;5987;53.140;8.904;2024-01-16T16:14:52;1.70;99.90
11855;DHT22;5987;53.140;8.904;2024-01-16T16:17:56;1.60;99.90
11855;DHT22;5987;53.140;8.904;2024-01-16T16:21:02;1.60;99.90
11855;DHT22;5987;53.140;8.904;2024-01-16T16:24:14;1.60;99.90
11855;DHT22;5987;53.140;8.904;2024-01-16T16:27:30;1.70;99.90
11855;DHT22;5987;53.140;8.904;2024-01-16T16:30:35;1.60;99.90
11855;DHT22;5987;53.140;8.904;2024-01-16T16:33:39;1.60;99.90
11855;DHT22;5987;53.140;8.904;2024-01-16T16:36:45;1.60;99.90
11855;DHT22;5987;53.140;8.904;2024-01-16T16:39:48;1.60;99.90
11855;DHT22;5987;53.140;8.904;2024-01-16T16:42:53;1.60;99.90
11855;DHT22;5987;53.140;8.904;2024-01-16T16:45:57;1.60;99.90
11855;DHT22;5987;53.140;8.904;2024-01-16T16:49:02;1.60;99.90
11855;DHT22;5987;53.140;8.904;2024-01-16T16:52:07;1.70;99.90
11855;DHT22;5987;53.140;8.904;2024-01-16T16:55:11;1.80;99.90
11855;DHT22;5987;53.140;8.904;2024-01-16T16:58:15;1.90;99.90
11855;DHT22;5987;53.140;8.904;2024-01-16T17:01:19;1.70;99.90
11855;DHT22;5987;53.140;8.904;2024-01-16T17:04:23;1.50;99.90
11855;DHT22;5987;53.140;8.904;2024-01-16T17:07:29;1.50;99.90
11855;DHT22;5987;53.140;8.904;2024-01-16T17:10:33;1.50;99.90
11855;DHT22;5987;53.140;8.904;2024-01-16T17:13:38;1.50;99.90
11855;DHT22;5987;53.140;8.904;2024-01-16T17:16:44;1.40;99.90
11855;DHT22;5987;53.140;8.904;2024-01-16T17:19:47;1.30;99.90
11855;DHT22;5987;53.140;8.904;2024-01-16T17:22:53;1.30;99.90
11855;DHT22;5987;53.140;8.904;2024-01-16T17:25:56;1.30;99.90
11855;DHT22;5987;53.140;8.904;2024-01-16T17:29:01;1.20;99.90
11855;DHT22;5987;53.140;8.904;2024-01-16T17:32:05;1.10;99.90
11855;DHT22;5987;53.140;8.904;2024-01-16T17:35:09;1.10;99.90
11855;DHT22;5987;53.140;8.904;2024-01-16T17:38:17;1.10;99.90
11855;DHT22;5987;53.140;8.904;2024-01-16T17:41:22;1.10;99.90
11855;DHT22;5987;53.140;8.904;2024-01-16T17:44:29;1.10;99.90
11855;DHT22;5987;53.140;8.904;2024-01-16T17:47:33;1.10;99.90
11855;DHT22;5987;53.140;8.904;2024-01-16T17:50:37;1.10;99.90
11855;DHT22;5987;53.140;8.904;2024-01-16T17:53:43;1.10;99.90
11855;DHT22;5987;53.140;8.904;2024-01-16T17:56:49;1.10;99.90
11855;DHT22;5987;53.140;8.904;2024-01-16T17:59:53;1.10;99.90
11855;DHT22;5987;53.140;8.904;2024-01-16T18:02:58;1.10;99.90
11855;DHT22;5987;53.140;8.904;2024-01-16T18:06:02;1.00;99.90
11855;DHT22;5987;53.140;8.904;2024-01-16T18:09:11;1.00;99.90
11855;DHT22;5987;53.140;8.904;2024-01-16T18:12:15;1.00;99.90
11855;DHT22;5987;53.140;8.904;2024-01-16T18:15:22;1.00;99.90
11855;DHT22;5987;53.140;8.904;2024-01-16T18:18:28;1.00;99.90
11855;DHT22;5987;53.140;8.904;2024-01-16T18:21:33;1.00;99.90
11855;DHT22;5987;53.140;8.904;2024-01-16T18:24:41;0.90;99.90
11855;DHT22;5987;53.140;8.904;2024-01-16T18:27:45;1.00;99.90
11855;DHT22;5987;53.140;8.904;2024-01-16T18:30:50;1.00;99.90
11855;DHT22;5987;53.140;8.904;2024-01-16T18:33:54;0.90;99.90
11855;DHT22;5987;53.140;8.904;2024-01-16T18:36:59;1.00;99.90
11855;DHT22;5987;53.140;8.904;2024-01-16T18:40:06;0.90;99.90
11855;DHT22;5987;53.140;8.904;2024-01-16T18:43:11;0.90;99.90
11855;DHT22;5987;53.140;8.904;2024-01-16T18:46:17;0.90;99.90
11855;DHT22;5987;53.140;8.904;2024-01-16T18:49:23;0.80;99.90
11855;DHT22;5987;53.140;8.904;2024-01-16T18:52:28;0.80;99.90
11855;DHT22;5987;53.140;8.904;2024-01-16T18:55:35;0.70;99.90
11855;DHT22;5987;53.140;8.904;2024-01-16T18:58:40;0.80;99.90
11855;DHT22;5987;53.140;8.904;2024-01-16T19:01:44;0.80;99.90
11855;DHT22;5987;53.140;8.904;2024-01-16T19:04:48;0.70;99.90
11855;DHT22;5987;53.140;8.904;2024-01-16T19:07:51;0.70;99.90
11855;DHT22;5987;53.140;8.904;2024-01-16T19:10:57;0.60;99.90
11855;DHT22;5987;53.140;8.904;2024-01-16T19:14:01;0.50;99.90
11855;DHT22;5987;53.140;8.904;2024-01-16T19:17:05;0.50;99.90
11855;DHT22;5987;53.140;8.904;2024-01-16T19:20:10;0.50;99.90
11855;DHT22;5987;53.140;8.904;2024-01-16T19:23:14;0.50;99.90
11855;DHT22;5987;53.140;8.904;2024-01-16T19:26:20;0.40;99.90
11855;DHT22;5987;53.140;8.904;2024-01-16T19:29:24;0.40;99.90
11855;DHT22;5987;53.140;8.904;2024-01-16T19:32:28;0.40;99.90
11855;DHT22;5987;53.140;8.904;2024-01-16T19:35:32;0.40;99.90
11855;DHT22;5987;53.140;8.904;2024-01-16T19:38:37;0.40;99.90
11855;DHT22;5987;53.140;8.904;2024-01-16T19:41:43;0.40;99.90
11855;DHT22;5987;53.140;8.904;2024-01-16T19:44:48;0.40;99.90
11855;DHT22;5987;53.140;8.904;2024-01-16T19:47:52;0.30;99.90
11855;DHT22;5987;53.140;8.904;2024-01-16T19:50:56;0.30;99.90
11855;DHT22;5987;53.140;8.904;2024-01-16T19:54:02;0.30;99.90
11855;DHT22;5987;53.140;8.904;2024-01-16T19:57:10;0.30;99.90
11855;DHT22;5987;53.140;8.904;2024-01-16T20:00:15;0.20;99.90
11855;DHT22;5987;53.140;8.904;2024-01-16T20:03:19;0.20;99.90
11855;DHT22;5987;53.140;8.904;2024-01-16T20:06:23;0.20;99.90
11855;DHT22;5987;53.140;8.904;2024-01-16T20:09:28;0.20;99.90
11855;DHT22;5987;53.140;8.904;2024-01-16T20:12:33;0.20;99.90